Scout — WCZ2046 — position and weather

sailwx.info

Track history (hours):
 
Tides and Currents Weather Stations Pressure Air Temp Water Temp Dewpoint Dewpoint Depression Visibility Wind Speed Wind Dir Waves Ship Positions

Scout

Owner: Crowley Marine Services, SEATTLE, WA. More information available from US FCC via Universal Licensing System and Coast Guard Vessel Documentation Center.

Last reported at 2016-Apr-30 08:33 UTC. Time now 2016-Apr-30 08:57 UTC.
Position N 32°42' W 117°09'.

; draft 5.6 m.

Type: Tug. MMSI: 366764730.

Date/timePositionNaut miles runAvg speedWind from/ knotsBaromVisibWave heightAir tempDewpointWater temp
2016-Apr-30 08:33N 32°42' W 117°09'0 0.0
2016-Apr-30 07:33N 32°42' W 117°09'0 0.0
2016-Apr-30 06:33N 32°42' W 117°09'3 2.7
2016-Apr-30 05:33N 32°39' W 117°07'1 0.9
2016-Apr-30 04:33N 32°40' W 117°08'2 1.9
2016-Apr-30 03:33N 32°42' W 117°09'0 0.0
2016-Apr-30 02:33N 32°42' W 117°09'0 0.0
2016-Apr-30 01:33N 32°42' W 117°09'0 0.0
2016-Apr-30 00:33N 32°42' W 117°09'0 0.0
2016-Apr-29 23:33N 32°42' W 117°09'0 0.0
2016-Apr-29 22:33N 32°42' W 117°09'0 0.0
2016-Apr-29 21:33N 32°42' W 117°09'0 0.0
2016-Apr-29 20:33N 32°42' W 117°09'0 0.0
2016-Apr-29 19:33N 32°42' W 117°09'0 0.0
2016-Apr-29 18:33N 32°42' W 117°09'0 0.0
2016-Apr-29 17:33N 32°42' W 117°09'0 0.0
2016-Apr-29 16:33N 32°42' W 117°09'0 0.0
2016-Apr-29 15:33N 32°42' W 117°09'0 0.0
2016-Apr-29 14:33N 32°42' W 117°09'0 0.0
2016-Apr-29 13:33N 32°42' W 117°09'0 0.0
2016-Apr-29 12:33N 32°42' W 117°09'0 0.0
2016-Apr-29 11:33N 32°42' W 117°09'0 0.0
2016-Apr-29 10:33N 32°42' W 117°09'0 0.0
2016-Apr-29 09:33N 32°42' W 117°09'0 0.0
2016-Apr-29 08:33N 32°42' W 117°09'0 0.0
2016-Apr-29 07:33N 32°42' W 117°09'0 0.0
2016-Apr-29 06:33N 32°42' W 117°09'0 0.0
2016-Apr-29 05:33N 32°42' W 117°09'0 0.0
2016-Apr-29 04:33N 32°42' W 117°09'2 2.1
2016-Apr-29 03:34N 32°40' W 117°08'2 2.1
2016-Apr-29 02:33N 32°42' W 117°09'0 0.0
2016-Apr-29 01:33N 32°42' W 117°09'0 0.0
2016-Apr-29 00:33N 32°42' W 117°09'0 0.0
2016-Apr-28 23:33N 32°42' W 117°09'0 0.0
2016-Apr-28 22:33N 32°42' W 117°09'0 0.0
2016-Apr-28 21:33N 32°42' W 117°09'0 0.0
2016-Apr-28 20:33N 32°42' W 117°09'0 0.0
2016-Apr-28 19:33N 32°42' W 117°09'0 0.0
2016-Apr-28 18:33N 32°42' W 117°09'0 0.0
2016-Apr-28 17:33N 32°42' W 117°09'0 0.0
2016-Apr-28 16:33N 32°42' W 117°09'0 0.0
2016-Apr-28 15:33N 32°42' W 117°09'0 0.0
2016-Apr-28 14:33N 32°42' W 117°09'2 2.3
2016-Apr-28 13:33N 32°43' W 117°11'2 2.4
2016-Apr-28 12:33N 32°42' W 117°09'0 0.0
2016-Apr-28 11:33N 32°42' W 117°09'0 0.0
2016-Apr-28 10:33N 32°42' W 117°09'0 0.0
2016-Apr-28 09:33N 32°42' W 117°09'0 0.0
2016-Apr-28 08:33N 32°42' W 117°09'0 0.0
2016-Apr-28 07:33N 32°42' W 117°09'0 0.0
2016-Apr-28 06:33N 32°42' W 117°09'0 0.0
2016-Apr-28 05:33N 32°42' W 117°09'0 0.0
2016-Apr-28 04:33N 32°42' W 117°09'0 0.0
2016-Apr-28 03:33N 32°42' W 117°09'0 0.1
2016-Apr-28 02:33N 32°42' W 117°09'0 0.4
2016-Apr-28 01:33N 32°42' W 117°10'0 0.1
2016-Apr-28 00:33N 32°42' W 117°10'3 2.5
2016-Apr-27 23:33N 32°40' W 117°08'2 2.1
2016-Apr-27 22:33N 32°42' W 117°09'0 0.0
2016-Apr-27 21:33N 32°42' W 117°09'0 0.0
2016-Apr-27 20:33N 32°42' W 117°09'0 0.0
2016-Apr-27 19:33N 32°42' W 117°09'0 0.0
2016-Apr-27 18:33N 32°42' W 117°09'0 0.0
2016-Apr-27 17:33N 32°42' W 117°09'0 0.0
2016-Apr-27 16:31N 32°42' W 117°09'0 0.0
2016-Apr-27 14:19N 32°42' W 117°09'1 0.7
2016-Apr-27 13:33N 32°42' W 117°10'0 0.3
2016-Apr-27 12:33N 32°42' W 117°10'1 0.8
2016-Apr-27 11:33N 32°42' W 117°09'0 0.0
2016-Apr-27 10:33N 32°42' W 117°09'0 0.0
2016-Apr-27 09:33N 32°42' W 117°09'0 0.0
2016-Apr-27 08:21N 32°42' W 117°09'0 0.0
2016-Apr-27 07:26N 32°42' W 117°09'0 0.0
2016-Apr-27 06:33N 32°42' W 117°09'2 2.1
2016-Apr-27 05:33N 32°43' W 117°11'2 2.1
2016-Apr-27 04:33N 32°42' W 117°09'0 0.0
2016-Apr-27 03:33N 32°42' W 117°09'0 0.0
2016-Apr-27 02:33N 32°42' W 117°09'0 0.0
2016-Apr-27 01:33N 32°42' W 117°09'0 0.0
2016-Apr-27 00:33N 32°42' W 117°09'0 0.0
2016-Apr-26 23:33N 32°42' W 117°09'2 1.4
2016-Apr-26 22:28N 32°41' W 117°08'0 0.5
2016-Apr-26 21:33N 32°40' W 117°08'2 1.9
2016-Apr-26 20:33N 32°42' W 117°09'0 0.0
2016-Apr-26 19:33N 32°42' W 117°09'0 0.0
2016-Apr-26 18:33N 32°42' W 117°09'0 0.0
2016-Apr-26 17:33N 32°42' W 117°09'0 0.0
2016-Apr-26 16:33N 32°42' W 117°09'0 0.0
2016-Apr-26 15:33N 32°42' W 117°09'0 0.0
2016-Apr-26 14:33N 32°42' W 117°09'0 0.0
2016-Apr-26 13:33N 32°42' W 117°09'0 0.0
2016-Apr-26 12:33N 32°42' W 117°09'0 0.0
2016-Apr-26 11:33N 32°42' W 117°09'0 0.0
2016-Apr-26 10:33N 32°42' W 117°09'0 0.0
2016-Apr-26 09:33N 32°42' W 117°09'0 0.0
2016-Apr-26 08:33N 32°42' W 117°09'0 0.0
2016-Apr-26 07:33N 32°42' W 117°09'0 0.0
2016-Apr-26 06:33N 32°42' W 117°09'0 0.0
2016-Apr-26 05:33N 32°42' W 117°09'0 0.0
2016-Apr-26 04:33N 32°42' W 117°09'0 0.0
2016-Apr-26 03:33N 32°42' W 117°09'0 0.0
2016-Apr-26 02:29N 32°42' W 117°09'0 0.0
2016-Apr-26 01:33N 32°42' W 117°09'0 0.4
2016-Apr-26 00:33N 32°42' W 117°10'0 0.4
2016-Apr-25 23:33N 32°42' W 117°09'0 0.0
2016-Apr-25 22:32N 32°42' W 117°09'0 0.0
2016-Apr-25 21:33N 32°42' W 117°09'4 4.2
2016-Apr-25 20:33N 32°42' W 117°14'3 2.7
2016-Apr-25 19:33N 32°40' W 117°14'4 4.3
2016-Apr-25 18:33N 32°42' W 117°09'0 0.0
2016-Apr-25 17:33N 32°42' W 117°09'3 2.9
2016-Apr-25 16:33N 32°39' W 117°07'1 1.3
2016-Apr-25 15:33N 32°41' W 117°08'0 0.3
2016-Apr-25 14:16N 32°40' W 117°08'2 2.8
2016-Apr-25 13:33N 32°42' W 117°09'0 0.0
2016-Apr-25 12:33N 32°42' W 117°09'0 0.0
2016-Apr-25 11:33N 32°42' W 117°09'0 0.0
2016-Apr-25 10:33N 32°42' W 117°09'0 0.0
2016-Apr-25 09:31N 32°42' W 117°09'0 0.4
2016-Apr-25 08:33N 32°42' W 117°10'1 1.2
2016-Apr-25 07:33N 32°43' W 117°11'3 2.5
2016-Apr-25 06:30N 32°41' W 117°08'0 0.1
2016-Apr-25 05:33N 32°41' W 117°08'0 0.1
2016-Apr-25 04:33N 32°41' W 117°08'0 0.0
2016-Apr-25 03:32N 32°41' W 117°08'0 0.0
2016-Apr-25 02:33N 32°41' W 117°08'0 0.1
2016-Apr-25 01:33N 32°41' W 117°08'1 0.9
2016-Apr-25 00:33N 32°42' W 117°09'0 0.1
2016-Apr-24 23:33N 32°42' W 117°09'0 0.0
2016-Apr-24 22:33N 32°42' W 117°09'0 0.0
2016-Apr-24 21:33N 32°42' W 117°09'0 0.0
2016-Apr-24 20:32N 32°42' W 117°09'0 0.0
2016-Apr-24 19:25N 32°42' W 117°09'0 0.0
2016-Apr-24 18:31N 32°42' W 117°09'0 0.0
2016-Apr-24 17:21N 32°42' W 117°09'0 0.0
2016-Apr-24 16:33N 32°42' W 117°09'0 0.0
2016-Apr-24 15:27N 32°42' W 117°09'0 0.0
2016-Apr-24 13:20N 32°42' W 117°09'1 0.7
2016-Apr-24 12:33N 32°42' W 117°10'1 0.6
2016-Apr-24 11:33N 32°42' W 117°09'0 0.0
2016-Apr-24 10:33N 32°42' W 117°09'0 0.0
2016-Apr-24 09:33N 32°42' W 117°09'0 0.0
2016-Apr-24 08:33N 32°42' W 117°09'0 0.0
2016-Apr-24 07:33N 32°42' W 117°09'0 0.0
2016-Apr-24 06:33N 32°42' W 117°09'0 0.0
2016-Apr-24 05:33N 32°42' W 117°09'0 0.0
2016-Apr-24 04:33N 32°42' W 117°09'0 0.0
2016-Apr-24 03:33N 32°42' W 117°09'0 0.0
2016-Apr-24 02:33N 32°42' W 117°09'0 0.0
2016-Apr-24 01:33N 32°42' W 117°09'0 0.0
2016-Apr-24 00:33N 32°42' W 117°09'0 0.0
2016-Apr-23 23:33N 32°42' W 117°09'0 0.0
2016-Apr-23 22:33N 32°42' W 117°09'0 0.0
2016-Apr-23 21:33N 32°42' W 117°09'0 0.0
2016-Apr-23 20:24N 32°42' W 117°09'0 0.0
2016-Apr-23 19:33N 32°42' W 117°09'0 0.0
2016-Apr-23 18:31N 32°42' W 117°09'0 0.0
2016-Apr-23 17:33N 32°42' W 117°09'0 0.0
2016-Apr-23 16:33N 32°42' W 117°09'0 0.0
2016-Apr-23 15:33N 32°42' W 117°09'0 0.0
2016-Apr-23 14:33N 32°42' W 117°09'0 0.0
2016-Apr-23 13:33N 32°42' W 117°09'0 0.0
2016-Apr-23 12:33N 32°42' W 117°09'0 0.0
2016-Apr-23 11:31N 32°42' W 117°09'0 0.0
2016-Apr-23 10:33N 32°42' W 117°09'0 0.0
2016-Apr-23 09:31N 32°42' W 117°09'0 0.0
2016-Apr-23 07:18N 32°42' W 117°09'0 0.1
2016-Apr-23 06:33N 32°42' W 117°09'0 0.0
2016-Apr-23 05:33N 32°42' W 117°09'0 0.0
2016-Apr-23 04:33N 32°42' W 117°09'0 0.0
2016-Apr-23 03:33N 32°42' W 117°09'0 0.0
2016-Apr-23 02:33N 32°42' W 117°09'0 0.0
2016-Apr-23 01:33N 32°42' W 117°09'0 0.0
2016-Apr-22 23:32N 32°42' W 117°09'2 1.6
2016-Apr-22 22:33N 32°41' W 117°08'2 0.8
2016-Apr-22 20:32N 32°42' W 117°09'0 0.0
2016-Apr-22 18:32N 32°42' W 117°09'0 0.0
2016-Apr-22 17:28N 32°42' W 117°09'0 0.0
2016-Apr-22 16:33N 32°42' W 117°09'0 0.0
2016-Apr-22 15:33N 32°42' W 117°09'0 0.0
2016-Apr-22 14:08N 32°42' W 117°09'3 5.3
2016-Apr-22 13:33N 32°39' W 117°07'3 0.3
2016-Apr-22 02:12N 32°42' W 117°09'0 0.0
2016-Apr-21 05:33N 32°42' W 117°09'0 0.0
2016-Apr-20 15:31N 32°42' W 117°09'0 0.0
2016-Apr-20 14:33N 32°42' W 117°09'0 0.0
2016-Apr-20 13:33N 32°42' W 117°09'0 0.0
2016-Apr-20 12:33N 32°42' W 117°09'0 0.0
2016-Apr-20 11:33N 32°42' W 117°09'0 0.0
2016-Apr-20 10:33N 32°42' W 117°09'0 0.0
2016-Apr-20 09:24N 32°42' W 117°09'  
Track history (hours):
 
Tides and Currents Weather Stations Pressure Air Temp Water Temp Dewpoint Dewpoint Depression Visibility Wind Speed Wind Dir Waves Ship Positions

Scout

Owner: Crowley Marine Services, SEATTLE, WA. More information available from US FCC via Universal Licensing System and Coast Guard Vessel Documentation Center.

Last reported at 2016-Apr-30 08:33 UTC. Time now 2016-Apr-30 08:57 UTC.
Position N 32°42' W 117°09'.

; draft 5.6 m.

Type: Tug. MMSI: 366764730.

Date/timePositionNaut miles runAvg speedWind from/ knotsBaromVisibWave heightAir tempDewpointWater temp
2016-Apr-30 08:33N 32°42' W 117°09'0 0.0
2016-Apr-30 07:33N 32°42' W 117°09'0 0.0
2016-Apr-30 06:33N 32°42' W 117°09'3 2.7
2016-Apr-30 05:33N 32°39' W 117°07'1 0.9
2016-Apr-30 04:33N 32°40' W 117°08'2 1.9
2016-Apr-30 03:33N 32°42' W 117°09'0 0.0
2016-Apr-30 02:33N 32°42' W 117°09'0 0.0
2016-Apr-30 01:33N 32°42' W 117°09'0 0.0
2016-Apr-30 00:33N 32°42' W 117°09'0 0.0
2016-Apr-29 23:33N 32°42' W 117°09'0 0.0
2016-Apr-29 22:33N 32°42' W 117°09'0 0.0
2016-Apr-29 21:33N 32°42' W 117°09'0 0.0
2016-Apr-29 20:33N 32°42' W 117°09'0 0.0
2016-Apr-29 19:33N 32°42' W 117°09'0 0.0
2016-Apr-29 18:33N 32°42' W 117°09'0 0.0
2016-Apr-29 17:33N 32°42' W 117°09'0 0.0
2016-Apr-29 16:33N 32°42' W 117°09'0 0.0
2016-Apr-29 15:33N 32°42' W 117°09'0 0.0
2016-Apr-29 14:33N 32°42' W 117°09'0 0.0
2016-Apr-29 13:33N 32°42' W 117°09'0 0.0
2016-Apr-29 12:33N 32°42' W 117°09'0 0.0
2016-Apr-29 11:33N 32°42' W 117°09'0 0.0
2016-Apr-29 10:33N 32°42' W 117°09'0 0.0
2016-Apr-29 09:33N 32°42' W 117°09'0 0.0
2016-Apr-29 08:33N 32°42' W 117°09'0 0.0
2016-Apr-29 07:33N 32°42' W 117°09'0 0.0
2016-Apr-29 06:33N 32°42' W 117°09'0 0.0
2016-Apr-29 05:33N 32°42' W 117°09'0 0.0
2016-Apr-29 04:33N 32°42' W 117°09'2 2.1
2016-Apr-29 03:34N 32°40' W 117°08'2 2.1
2016-Apr-29 02:33N 32°42' W 117°09'0 0.0
2016-Apr-29 01:33N 32°42' W 117°09'0 0.0
2016-Apr-29 00:33N 32°42' W 117°09'0 0.0
2016-Apr-28 23:33N 32°42' W 117°09'0 0.0
2016-Apr-28 22:33N 32°42' W 117°09'0 0.0
2016-Apr-28 21:33N 32°42' W 117°09'0 0.0
2016-Apr-28 20:33N 32°42' W 117°09'0 0.0
2016-Apr-28 19:33N 32°42' W 117°09'0 0.0
2016-Apr-28 18:33N 32°42' W 117°09'0 0.0
2016-Apr-28 17:33N 32°42' W 117°09'0 0.0
2016-Apr-28 16:33N 32°42' W 117°09'0 0.0
2016-Apr-28 15:33N 32°42' W 117°09'0 0.0
2016-Apr-28 14:33N 32°42' W 117°09'2 2.3
2016-Apr-28 13:33N 32°43' W 117°11'2 2.4
2016-Apr-28 12:33N 32°42' W 117°09'0 0.0
2016-Apr-28 11:33N 32°42' W 117°09'0 0.0
2016-Apr-28 10:33N 32°42' W 117°09'0 0.0
2016-Apr-28 09:33N 32°42' W 117°09'0 0.0
2016-Apr-28 08:33N 32°42' W 117°09'0 0.0
2016-Apr-28 07:33N 32°42' W 117°09'0 0.0
2016-Apr-28 06:33N 32°42' W 117°09'0 0.0
2016-Apr-28 05:33N 32°42' W 117°09'0 0.0
2016-Apr-28 04:33N 32°42' W 117°09'0 0.0
2016-Apr-28 03:33N 32°42' W 117°09'0 0.1
2016-Apr-28 02:33N 32°42' W 117°09'0 0.4
2016-Apr-28 01:33N 32°42' W 117°10'0 0.1
2016-Apr-28 00:33N 32°42' W 117°10'3 2.5
2016-Apr-27 23:33N 32°40' W 117°08'2 2.1
2016-Apr-27 22:33N 32°42' W 117°09'0 0.0
2016-Apr-27 21:33N 32°42' W 117°09'0 0.0
2016-Apr-27 20:33N 32°42' W 117°09'0 0.0
2016-Apr-27 19:33N 32°42' W 117°09'0 0.0
2016-Apr-27 18:33N 32°42' W 117°09'0 0.0
2016-Apr-27 17:33N 32°42' W 117°09'0 0.0
2016-Apr-27 16:31N 32°42' W 117°09'0 0.0
2016-Apr-27 14:19N 32°42' W 117°09'1 0.7
2016-Apr-27 13:33N 32°42' W 117°10'0 0.3
2016-Apr-27 12:33N 32°42' W 117°10'1 0.8
2016-Apr-27 11:33N 32°42' W 117°09'0 0.0
2016-Apr-27 10:33N 32°42' W 117°09'0 0.0
2016-Apr-27 09:33N 32°42' W 117°09'0 0.0
2016-Apr-27 08:21N 32°42' W 117°09'0 0.0
2016-Apr-27 07:26N 32°42' W 117°09'0 0.0
2016-Apr-27 06:33N 32°42' W 117°09'2 2.1
2016-Apr-27 05:33N 32°43' W 117°11'2 2.1
2016-Apr-27 04:33N 32°42' W 117°09'0 0.0
2016-Apr-27 03:33N 32°42' W 117°09'0 0.0
2016-Apr-27 02:33N 32°42' W 117°09'0 0.0
2016-Apr-27 01:33N 32°42' W 117°09'0 0.0
2016-Apr-27 00:33N 32°42' W 117°09'0 0.0
2016-Apr-26 23:33N 32°42' W 117°09'2 1.4
2016-Apr-26 22:28N 32°41' W 117°08'0 0.5
2016-Apr-26 21:33N 32°40' W 117°08'2 1.9
2016-Apr-26 20:33N 32°42' W 117°09'0 0.0
2016-Apr-26 19:33N 32°42' W 117°09'0 0.0
2016-Apr-26 18:33N 32°42' W 117°09'0 0.0
2016-Apr-26 17:33N 32°42' W 117°09'0 0.0
2016-Apr-26 16:33N 32°42' W 117°09'0 0.0
2016-Apr-26 15:33N 32°42' W 117°09'0 0.0
2016-Apr-26 14:33N 32°42' W 117°09'0 0.0
2016-Apr-26 13:33N 32°42' W 117°09'0 0.0
2016-Apr-26 12:33N 32°42' W 117°09'0 0.0
2016-Apr-26 11:33N 32°42' W 117°09'0 0.0
2016-Apr-26 10:33N 32°42' W 117°09'0 0.0
2016-Apr-26 09:33N 32°42' W 117°09'0 0.0
2016-Apr-26 08:33N 32°42' W 117°09'0 0.0
2016-Apr-26 07:33N 32°42' W 117°09'0 0.0
2016-Apr-26 06:33N 32°42' W 117°09'0 0.0
2016-Apr-26 05:33N 32°42' W 117°09'0 0.0
2016-Apr-26 04:33N 32°42' W 117°09'0 0.0
2016-Apr-26 03:33N 32°42' W 117°09'0 0.0
2016-Apr-26 02:29N 32°42' W 117°09'0 0.0
2016-Apr-26 01:33N 32°42' W 117°09'0 0.4
2016-Apr-26 00:33N 32°42' W 117°10'0 0.4
2016-Apr-25 23:33N 32°42' W 117°09'0 0.0
2016-Apr-25 22:32N 32°42' W 117°09'0 0.0
2016-Apr-25 21:33N 32°42' W 117°09'4 4.2
2016-Apr-25 20:33N 32°42' W 117°14'3 2.7
2016-Apr-25 19:33N 32°40' W 117°14'4 4.3
2016-Apr-25 18:33N 32°42' W 117°09'0 0.0
2016-Apr-25 17:33N 32°42' W 117°09'3 2.9
2016-Apr-25 16:33N 32°39' W 117°07'1 1.3
2016-Apr-25 15:33N 32°41' W 117°08'0 0.3
2016-Apr-25 14:16N 32°40' W 117°08'2 2.8
2016-Apr-25 13:33N 32°42' W 117°09'0 0.0
2016-Apr-25 12:33N 32°42' W 117°09'0 0.0
2016-Apr-25 11:33N 32°42' W 117°09'0 0.0
2016-Apr-25 10:33N 32°42' W 117°09'0 0.0
2016-Apr-25 09:31N 32°42' W 117°09'0 0.4
2016-Apr-25 08:33N 32°42' W 117°10'1 1.2
2016-Apr-25 07:33N 32°43' W 117°11'3 2.5
2016-Apr-25 06:30N 32°41' W 117°08'0 0.1
2016-Apr-25 05:33N 32°41' W 117°08'0 0.1
2016-Apr-25 04:33N 32°41' W 117°08'0 0.0
2016-Apr-25 03:32N 32°41' W 117°08'0 0.0
2016-Apr-25 02:33N 32°41' W 117°08'0 0.1
2016-Apr-25 01:33N 32°41' W 117°08'1 0.9
2016-Apr-25 00:33N 32°42' W 117°09'0 0.1
2016-Apr-24 23:33N 32°42' W 117°09'0 0.0
2016-Apr-24 22:33N 32°42' W 117°09'0 0.0
2016-Apr-24 21:33N 32°42' W 117°09'0 0.0
2016-Apr-24 20:32N 32°42' W 117°09'0 0.0
2016-Apr-24 19:25N 32°42' W 117°09'0 0.0
2016-Apr-24 18:31N 32°42' W 117°09'0 0.0
2016-Apr-24 17:21N 32°42' W 117°09'0 0.0
2016-Apr-24 16:33N 32°42' W 117°09'0 0.0
2016-Apr-24 15:27N 32°42' W 117°09'0 0.0
2016-Apr-24 13:20N 32°42' W 117°09'1 0.7
2016-Apr-24 12:33N 32°42' W 117°10'1 0.6
2016-Apr-24 11:33N 32°42' W 117°09'0 0.0
2016-Apr-24 10:33N 32°42' W 117°09'0 0.0
2016-Apr-24 09:33N 32°42' W 117°09'0 0.0
2016-Apr-24 08:33N 32°42' W 117°09'0 0.0
2016-Apr-24 07:33N 32°42' W 117°09'0 0.0
2016-Apr-24 06:33N 32°42' W 117°09'0 0.0
2016-Apr-24 05:33N 32°42' W 117°09'0 0.0
2016-Apr-24 04:33N 32°42' W 117°09'0 0.0
2016-Apr-24 03:33N 32°42' W 117°09'0 0.0
2016-Apr-24 02:33N 32°42' W 117°09'0 0.0
2016-Apr-24 01:33N 32°42' W 117°09'0 0.0
2016-Apr-24 00:33N 32°42' W 117°09'0 0.0
2016-Apr-23 23:33N 32°42' W 117°09'0 0.0
2016-Apr-23 22:33N 32°42' W 117°09'0 0.0
2016-Apr-23 21:33N 32°42' W 117°09'0 0.0
2016-Apr-23 20:24N 32°42' W 117°09'0 0.0
2016-Apr-23 19:33N 32°42' W 117°09'0 0.0
2016-Apr-23 18:31N 32°42' W 117°09'0 0.0
2016-Apr-23 17:33N 32°42' W 117°09'0 0.0
2016-Apr-23 16:33N 32°42' W 117°09'0 0.0
2016-Apr-23 15:33N 32°42' W 117°09'0 0.0
2016-Apr-23 14:33N 32°42' W 117°09'0 0.0
2016-Apr-23 13:33N 32°42' W 117°09'0 0.0
2016-Apr-23 12:33N 32°42' W 117°09'0 0.0
2016-Apr-23 11:31N 32°42' W 117°09'0 0.0
2016-Apr-23 10:33N 32°42' W 117°09'0 0.0
2016-Apr-23 09:31N 32°42' W 117°09'0 0.0
2016-Apr-23 07:18N 32°42' W 117°09'0 0.1
2016-Apr-23 06:33N 32°42' W 117°09'0 0.0
2016-Apr-23 05:33N 32°42' W 117°09'0 0.0
2016-Apr-23 04:33N 32°42' W 117°09'0 0.0
2016-Apr-23 03:33N 32°42' W 117°09'0 0.0
2016-Apr-23 02:33N 32°42' W 117°09'0 0.0
2016-Apr-23 01:33N 32°42' W 117°09'0 0.0
2016-Apr-22 23:32N 32°42' W 117°09'2 1.6
2016-Apr-22 22:33N 32°41' W 117°08'2 0.8
2016-Apr-22 20:32N 32°42' W 117°09'0 0.0
2016-Apr-22 18:32N 32°42' W 117°09'0 0.0
2016-Apr-22 17:28N 32°42' W 117°09'0 0.0
2016-Apr-22 16:33N 32°42' W 117°09'0 0.0
2016-Apr-22 15:33N 32°42' W 117°09'0 0.0
2016-Apr-22 14:08N 32°42' W 117°09'3 5.3
2016-Apr-22 13:33N 32°39' W 117°07'3 0.3
2016-Apr-22 02:12N 32°42' W 117°09'0 0.0
2016-Apr-21 05:33N 32°42' W 117°09'0 0.0
2016-Apr-20 15:31N 32°42' W 117°09'0 0.0
2016-Apr-20 14:33N 32°42' W 117°09'0 0.0
2016-Apr-20 13:33N 32°42' W 117°09'0 0.0
2016-Apr-20 12:33N 32°42' W 117°09'0 0.0
2016-Apr-20 11:33N 32°42' W 117°09'0 0.0
2016-Apr-20 10:33N 32°42' W 117°09'0 0.0
2016-Apr-20 09:24N 32°42' W 117°09'  

Dump ship's entire track history